General Ignacio P Garcia International Airport
MMHO : now visible

Airfield :











YOU CAN JOIN US ON...

 
LOGIN :

Register | Disclaimer

   EN    FR    IT 

 









Legend :    VFR   Marginal VFR   IFR   Intensive IFR   Very Intensive IFR
Visi :
Ceiling :
>= 8 km
>= 3000ft
5 to 8 km
1000 to 3000 ft
1500m to 5 km
500 to 1000 ft
800 to 1500m
200 to 500 ft
< 800m
< 200 ft
Symbols :   Thunderstorms  Fog  Heavy snow  Heavy precipitations  Wind > 20 kt






- Airport Elevation : 627 ft
- IATA code : HMO


MMHO - General Ignacio P Garcia International

CURRENT METAR :
  • 070841Z 00000KT 10SM SCT200 23/21 A2998 RMK SLP147 54000 901 8/008 ISOL AC HZY

EXPIRED METARs :
  • 070740Z 22002KT 10SM SCT200 24/21 A2998 RMK 8/008 ISOL AC HZY
  • 070640Z 00000KT 10SM FEW090 SCT200 25/21 A2999 RMK 8/038 HZY

TAF TAF MMHO
Valid from the 07 at 06:00 until the 08 at 06:00 UTC


070303Z 0706/0806 27005KT P6SM SCT250
FM071800 30007KT P6SM SCT030 BKN250
TEMPO 0802/0806 BKN030
MMFR FIR / North America



MET'MAP, your aeronautical weather chart ! - Copyright ORBIFLY December 2007 - Disclaimer

ORBIFLY MET'MAP TEAM :

Programming & Development : Alexandra Zaïnal
Original concept : Baudouin d'Aumeries
Technical & hardware support : Manuel Goepfert
Assistance : Marc-Olivier Méhu




SOURCES & CREDITS :

   NOAA       Earth
Advisory